sensor_id;sensor_type;location;lat;lon;timestamp;pressure;altitude;pressure_sealevel;temperature;humidity
52535;BME280;38443;53.164;5.802;2023-02-13T00:00:15;103995.38;;;4.44;100.00
52535;BME280;38443;53.164;5.802;2023-02-13T00:02:40;103995.38;;;4.44;100.00
52535;BME280;38443;53.164;5.802;2023-02-13T00:05:06;103994.31;;;4.40;100.00
52535;BME280;38443;53.164;5.802;2023-02-13T00:07:31;104002.34;;;4.42;100.00
52535;BME280;38443;53.164;5.802;2023-02-13T00:09:56;104002.28;;;4.40;100.00
52535;BME280;38443;53.164;5.802;2023-02-13T00:12:22;104000.56;;;4.41;100.00
52535;BME280;38443;53.164;5.802;2023-02-13T00:14:47;104003.03;;;4.38;100.00
52535;BME280;38443;53.164;5.802;2023-02-13T00:17:12;104011.09;;;4.39;100.00
52535;BME280;38443;53.164;5.802;2023-02-13T00:19:38;103997.59;;;4.35;100.00
52535;BME280;38443;53.164;5.802;2023-02-13T00:22:04;103999.41;;;4.36;100.00
52535;BME280;38443;53.164;5.802;2023-02-13T00:24:29;103992.16;;;4.32;100.00
52535;BME280;38443;53.164;5.802;2023-02-13T00:26:54;103998.34;;;4.32;100.00
52535;BME280;38443;53.164;5.802;2023-02-13T00:29:20;103987.53;;;4.28;100.00
52535;BME280;38443;53.164;5.802;2023-02-13T00:31:45;103985.88;;;4.30;100.00
52535;BME280;38443;53.164;5.802;2023-02-13T00:34:10;103990.19;;;4.28;100.00
52535;BME280;38443;53.164;5.802;2023-02-13T00:36:35;103991.19;;;4.30;100.00
52535;BME280;38443;53.164;5.802;2023-02-13T00:39:01;103990.19;;;4.28;100.00
52535;BME280;38443;53.164;5.802;2023-02-13T00:41:26;103987.66;;;4.31;100.00
52535;BME280;38443;53.164;5.802;2023-02-13T00:43:52;103982.31;;;4.29;100.00
52535;BME280;38443;53.164;5.802;2023-02-13T00:46:17;103985.88;;;4.30;100.00
52535;BME280;38443;53.164;5.802;2023-02-13T00:48:43;103982.25;;;4.28;100.00
52535;BME280;38443;53.164;5.802;2023-02-13T00:51:09;103982.25;;;4.28;100.00
52535;BME280;38443;53.164;5.802;2023-02-13T00:53:36;103979.59;;;4.28;100.00
52535;BME280;38443;53.164;5.802;2023-02-13T00:56:02;103986.69;;;4.29;100.00
52535;BME280;38443;53.164;5.802;2023-02-13T00:58:28;103983.06;;;4.27;100.00
52535;BME280;38443;53.164;5.802;2023-02-13T01:00:54;103982.84;;;4.22;100.00
52535;BME280;38443;53.164;5.802;2023-02-13T01:03:20;103981.19;;;4.24;100.00
52535;BME280;38443;53.164;5.802;2023-02-13T01:05:46;103980.34;;;4.25;100.00
52535;BME280;38443;53.164;5.802;2023-02-13T01:08:11;103980.28;;;4.24;100.00
52535;BME280;38443;53.164;5.802;2023-02-13T01:10:38;103985.72;;;4.27;100.00
52535;BME280;38443;53.164;5.802;2023-02-13T01:13:04;103990.09;;;4.26;100.00
52535;BME280;38443;53.164;5.802;2023-02-13T01:15:30;103993.66;;;4.27;100.00
52535;BME280;38443;53.164;5.802;2023-02-13T01:17:57;103991.94;;;4.27;100.00
52535;BME280;38443;53.164;5.802;2023-02-13T01:20:22;103994.34;;;4.23;100.00
52535;BME280;38443;53.164;5.802;2023-02-13T01:22:48;103991.69;;;4.23;100.00
52535;BME280;38443;53.164;5.802;2023-02-13T01:25:13;103996.88;;;4.19;100.00
52535;BME280;38443;53.164;5.802;2023-02-13T01:27:38;103989.81;;;4.20;100.00
52535;BME280;38443;53.164;5.802;2023-02-13T01:30:04;103986.19;;;4.18;100.00
52535;BME280;38443;53.164;5.802;2023-02-13T01:32:34;103982.75;;;4.20;100.00
52535;BME280;38443;53.164;5.802;2023-02-13T01:34:59;103983.63;;;4.19;100.00
52535;BME280;38443;53.164;5.802;2023-02-13T01:37:25;103984.59;;;4.22;100.00
52535;BME280;38443;53.164;5.802;2023-02-13T01:39:50;103984.59;;;4.22;100.00
52535;BME280;38443;53.164;5.802;2023-02-13T01:42:25;103988.06;;;4.20;100.00
52535;BME280;38443;53.164;5.802;2023-02-13T01:44:53;103989.97;;;4.23;100.00
52535;BME280;38443;53.164;5.802;2023-02-13T01:47:43;103970.50;;;4.23;100.00
52535;BME280;38443;53.164;5.802;2023-02-13T01:50:15;103976.72;;;4.23;100.00
52535;BME280;38443;53.164;5.802;2023-02-13T01:52:58;103973.09;;;4.21;100.00
52535;BME280;38443;53.164;5.802;2023-02-13T01:55:26;103969.50;;;4.20;100.00
52535;BME280;38443;53.164;5.802;2023-02-13T01:58:04;103969.47;;;4.19;100.00
52535;BME280;38443;53.164;5.802;2023-02-13T02:00:30;103971.25;;;4.20;100.00
52535;BME280;38443;53.164;5.802;2023-02-13T02:03:00;103974.75;;;4.19;100.00
52535;BME280;38443;53.164;5.802;2023-02-13T02:05:29;103976.56;;;4.20;100.00
52535;BME280;38443;53.164;5.802;2023-02-13T02:07:57;103973.09;;;4.21;100.00
52535;BME280;38443;53.164;5.802;2023-02-13T02:10:23;103972.25;;;4.22;100.00
52535;BME280;38443;53.164;5.802;2023-02-13T02:12:54;103965.16;;;4.21;100.00
52535;BME280;38443;53.164;5.802;2023-02-13T02:15:23;103963.22;;;4.18;100.00
52535;BME280;38443;53.164;5.802;2023-02-13T02:17:48;103965.75;;;4.15;100.00
52535;BME280;38443;53.164;5.802;2023-02-13T02:26:40;103966.56;;;4.14;100.00
52535;BME280;38443;53.164;5.802;2023-02-13T02:29:37;103964.91;;;4.16;100.00
52535;BME280;38443;53.164;5.802;2023-02-13T02:40:15;103967.56;;;4.16;100.00
52535;BME280;38443;53.164;5.802;2023-02-13T02:48:32;103944.53;;;4.15;100.00
52535;BME280;38443;53.164;5.802;2023-02-13T02:51:26;103958.63;;;4.14;100.00
52535;BME280;38443;53.164;5.802;2023-02-13T02:54:02;103952.41;;;4.14;100.00
52535;BME280;38443;53.164;5.802;2023-02-13T02:56:55;103937.41;;;4.14;100.00
52535;BME280;38443;53.164;5.802;2023-02-13T02:59:24;103946.25;;;4.15;100.00
52535;BME280;38443;53.164;5.802;2023-02-13T03:02:09;103941.91;;;4.15;100.00
52535;BME280;38443;53.164;5.802;2023-02-13T03:04:56;103941.91;;;4.15;100.00
52535;BME280;38443;53.164;5.802;2023-02-13T03:07:42;103940.06;;;4.14;100.00
52535;BME280;38443;53.164;5.802;2023-02-13T03:10:13;103935.25;;;4.06;100.00
52535;BME280;38443;53.164;5.802;2023-02-13T03:13:05;103934.34;;;4.05;100.00
52535;BME280;38443;53.164;5.802;2023-02-13T03:16:00;103929.03;;;4.05;100.00
52535;BME280;38443;53.164;5.802;2023-02-13T03:18:49;103928.09;;;4.05;100.00
52535;BME280;38443;53.164;5.802;2023-02-13T03:24:39;103925.47;;;4.05;100.00
52535;BME280;38443;53.164;5.802;2023-02-13T03:35:57;103926.41;;;4.05;100.00
52535;BME280;38443;53.164;5.802;2023-02-13T03:38:58;103927.50;;;4.10;100.00
52535;BME280;38443;53.164;5.802;2023-02-13T03:41:48;103932.97;;;4.13;100.00
52535;BME280;38443;53.164;5.802;2023-02-13T03:46:52;103923.41;;;4.17;100.00
52535;BME280;38443;53.164;5.802;2023-02-13T03:49:40;103919.84;;;4.16;100.00
52535;BME280;38443;53.164;5.802;2023-02-13T03:55:06;103924.31;;;4.17;100.00
52535;BME280;38443;53.164;5.802;2023-02-13T03:57:54;103929.63;;;4.17;100.00
52535;BME280;38443;53.164;5.802;2023-02-13T04:00:45;103929.69;;;4.19;100.00
52535;BME280;38443;53.164;5.802;2023-02-13T04:03:43;103932.34;;;4.19;100.00
52535;BME280;38443;53.164;5.802;2023-02-13T04:06:13;103928.03;;;4.21;100.00
52535;BME280;38443;53.164;5.802;2023-02-13T04:08:40;103923.63;;;4.22;100.00
52535;BME280;38443;53.164;5.802;2023-02-13T04:11:07;103927.94;;;4.19;100.00
52535;BME280;38443;53.164;5.802;2023-02-13T04:13:41;103928.06;;;4.23;100.00
52535;BME280;38443;53.164;5.802;2023-02-13T04:16:16;103934.34;;;4.25;100.00
52535;BME280;38443;53.164;5.802;2023-02-13T04:18:43;103930.03;;;4.27;100.00
52535;BME280;38443;53.164;5.802;2023-02-13T04:21:08;103922.94;;;4.26;100.00
52535;BME280;38443;53.164;5.802;2023-02-13T04:23:34;103927.47;;;4.28;100.00
52535;BME280;38443;53.164;5.802;2023-02-13T04:25:59;103922.03;;;4.25;100.00
52535;BME280;38443;53.164;5.802;2023-02-13T04:28:26;103912.41;;;4.27;100.00
52535;BME280;38443;53.164;5.802;2023-02-13T04:30:51;103917.63;;;4.26;100.00
52535;BME280;38443;53.164;5.802;2023-02-13T04:33:17;103916.84;;;4.28;100.00
52535;BME280;38443;53.164;5.802;2023-02-13T04:35:42;103912.31;;;4.26;100.00
52535;BME280;38443;53.164;5.802;2023-02-13T04:38:07;103906.13;;;4.25;100.00
52535;BME280;38443;53.164;5.802;2023-02-13T04:40:33;103913.09;;;4.23;100.00
52535;BME280;38443;53.164;5.802;2023-02-13T04:42:59;103906.94;;;4.24;100.00
52535;BME280;38443;53.164;5.802;2023-02-13T04:45:25;103908.81;;;4.27;100.00
52535;BME280;38443;53.164;5.802;2023-02-13T04:47:51;103900.75;;;4.24;100.00
52535;BME280;38443;53.164;5.802;2023-02-13T04:50:17;103903.38;;;4.24;100.00
52535;BME280;38443;53.164;5.802;2023-02-13T04:52:42;103905.19;;;4.25;100.00
52535;BME280;38443;53.164;5.802;2023-02-13T04:55:08;103905.06;;;4.22;100.00
52535;BME280;38443;53.164;5.802;2023-02-13T04:57:33;103903.22;;;4.20;100.00
52535;BME280;38443;53.164;5.802;2023-02-13T04:59:58;103903.09;;;4.17;100.00
52535;BME280;38443;53.164;5.802;2023-02-13T05:02:24;103903.19;;;4.19;100.00
52535;BME280;38443;53.164;5.802;2023-02-13T05:04:49;103898.63;;;4.16;100.00
52535;BME280;38443;53.164;5.802;2023-02-13T05:07:14;103901.34;;;4.18;100.00
52535;BME280;38443;53.164;5.802;2023-02-13T05:09:40;103898.53;;;4.15;100.00
52535;BME280;38443;53.164;5.802;2023-02-13T05:12:05;103893.41;;;4.18;100.00
52535;BME280;38443;53.164;5.802;2023-02-13T05:14:30;103894.19;;;4.15;100.00
52535;BME280;38443;53.164;5.802;2023-02-13T05:16:56;103900.47;;;4.17;100.00
52535;BME280;38443;53.164;5.802;2023-02-13T05:19:21;103895.97;;;4.16;100.00
52535;BME280;38443;53.164;5.802;2023-02-13T05:21:46;103894.31;;;4.18;100.00
52535;BME280;38443;53.164;5.802;2023-02-13T05:24:30;103897.94;;;4.20;100.00
52535;BME280;38443;53.164;5.802;2023-02-13T05:26:55;103887.19;;;4.17;100.00
52535;BME280;38443;53.164;5.802;2023-02-13T05:29:21;103892.63;;;4.20;100.00
52535;BME280;38443;53.164;5.802;2023-02-13T05:34:12;103895.50;;;4.25;100.00
52535;BME280;38443;53.164;5.802;2023-02-13T05:36:37;103896.41;;;4.26;100.00
52535;BME280;38443;53.164;5.802;2023-02-13T05:39:04;103891.22;;;4.29;100.00
52535;BME280;38443;53.164;5.802;2023-02-13T05:41:30;103901.09;;;4.31;100.00
52535;BME280;38443;53.164;5.802;2023-02-13T05:43:55;103901.84;;;4.29;100.00
52535;BME280;38443;53.164;5.802;2023-02-13T05:46:21;103910.72;;;4.29;100.00
52535;BME280;38443;53.164;5.802;2023-02-13T05:48:46;103910.56;;;4.26;100.00
52535;BME280;38443;53.164;5.802;2023-02-13T05:51:11;103923.81;;;4.26;100.00
52535;BME280;38443;53.164;5.802;2023-02-13T05:53:36;103916.56;;;4.22;100.00
52535;BME280;38443;53.164;5.802;2023-02-13T05:56:04;103924.59;;;4.24;100.00
52535;BME280;38443;53.164;5.802;2023-02-13T05:58:30;103922.78;;;4.23;100.00
52535;BME280;38443;53.164;5.802;2023-02-13T06:00:56;103931.38;;;4.17;100.00
52535;BME280;38443;53.164;5.802;2023-02-13T06:03:26;103936.44;;;4.12;100.00
52535;BME280;38443;53.164;5.802;2023-02-13T06:05:53;103935.38;;;4.09;100.00
52535;BME280;38443;53.164;5.802;2023-02-13T06:08:19;103927.38;;;4.07;100.00
52535;BME280;38443;53.164;5.802;2023-02-13T06:10:45;103928.09;;;4.05;100.00
52535;BME280;38443;53.164;5.802;2023-02-13T06:13:11;103933.41;;;4.05;100.00
52535;BME280;38443;53.164;5.802;2023-02-13T06:15:36;103936.00;;;4.03;100.00
52535;BME280;38443;53.164;5.802;2023-02-13T06:18:02;103938.72;;;4.05;100.00
52535;BME280;38443;53.164;5.802;2023-02-13T06:20:27;103943.88;;;4.02;100.00
52535;BME280;38443;53.164;5.802;2023-02-13T06:22:52;103945.69;;;4.03;100.00
52535;BME280;38443;53.164;5.802;2023-02-13T06:25:18;103949.03;;;3.98;100.00
52535;BME280;38443;53.164;5.802;2023-02-13T06:27:44;103946.44;;;4.00;100.00
52535;BME280;38443;53.164;5.802;2023-02-13T06:30:09;103944.66;;;3.99;100.00
52535;BME280;38443;53.164;5.802;2023-02-13T06:32:35;103945.56;;;3.99;100.00
52535;BME280;38443;53.164;5.802;2023-02-13T06:35:00;103950.84;;;3.99;100.00
52535;BME280;38443;53.164;5.802;2023-02-13T06:37:25;103956.25;;;4.01;100.00
52535;BME280;38443;53.164;5.802;2023-02-13T06:39:51;103945.56;;;3.99;100.00
52535;BME280;38443;53.164;5.802;2023-02-13T06:42:16;103945.56;;;3.99;100.00
52535;BME280;38443;53.164;5.802;2023-02-13T06:44:42;103952.72;;;4.02;100.00
52535;BME280;38443;53.164;5.802;2023-02-13T06:47:07;103949.09;;;4.00;100.00
52535;BME280;38443;53.164;5.802;2023-02-13T06:49:33;103956.25;;;4.01;100.00
52535;BME280;38443;53.164;5.802;2023-02-13T06:51:58;103954.41;;;4.00;100.00
52535;BME280;38443;53.164;5.802;2023-02-13T06:54:24;103941.22;;;4.02;100.00
52535;BME280;38443;53.164;5.802;2023-02-13T06:56:49;103949.03;;;3.98;100.00
52535;BME280;38443;53.164;5.802;2023-02-13T06:59:14;103946.44;;;4.00;100.00
52535;BME280;38443;53.164;5.802;2023-02-13T07:01:39;103951.91;;;4.03;100.00
52535;BME280;38443;53.164;5.802;2023-02-13T07:04:05;103955.47;;;4.04;100.00
52535;BME280;38443;53.164;5.802;2023-02-13T07:06:30;103945.75;;;4.04;100.00
52535;BME280;38443;53.164;5.802;2023-02-13T07:08:55;103952.03;;;4.06;100.00
52535;BME280;38443;53.164;5.802;2023-02-13T07:11:21;103951.16;;;4.06;100.00
52535;BME280;38443;53.164;5.802;2023-02-13T07:13:47;103952.03;;;4.06;100.00
52535;BME280;38443;53.164;5.802;2023-02-13T07:16:13;103947.50;;;4.04;100.00
52535;BME280;38443;53.164;5.802;2023-02-13T07:18:39;103964.41;;;4.06;100.00
52535;BME280;38443;53.164;5.802;2023-02-13T07:21:04;103962.66;;;4.06;100.00
52535;BME280;38443;53.164;5.802;2023-02-13T07:23:29;103961.81;;;4.07;100.00
52535;BME280;38443;53.164;5.802;2023-02-13T07:25:57;103963.63;;;4.08;100.00
52535;BME280;38443;53.164;5.802;2023-02-13T07:28:23;103960.16;;;4.09;100.00
52535;BME280;38443;53.164;5.802;2023-02-13T07:30:48;103975.22;;;4.10;100.00
52535;BME280;38443;53.164;5.802;2023-02-13T07:33:13;103970.81;;;4.11;100.00
52535;BME280;38443;53.164;5.802;2023-02-13T07:35:38;103968.25;;;4.12;100.00
52535;BME280;38443;53.164;5.802;2023-02-13T07:38:06;103981.56;;;4.14;100.00
52535;BME280;38443;53.164;5.802;2023-02-13T07:40:31;103971.75;;;4.11;100.00
52535;BME280;38443;53.164;5.802;2023-02-13T07:42:59;103977.09;;;4.13;100.00
52535;BME280;38443;53.164;5.802;2023-02-13T07:45:26;103976.28;;;4.14;100.00
52535;BME280;38443;53.164;5.802;2023-02-13T07:47:53;103986.78;;;4.12;100.00
52535;BME280;38443;53.164;5.802;2023-02-13T07:50:18;103985.03;;;4.13;100.00
52535;BME280;38443;53.164;5.802;2023-02-13T07:52:44;103981.56;;;4.14;100.00
52535;BME280;38443;53.164;5.802;2023-02-13T07:55:16;103977.25;;;4.16;100.00
52535;BME280;38443;53.164;5.802;2023-02-13T07:57:41;103983.47;;;4.16;100.00
52535;BME280;38443;53.164;5.802;2023-02-13T08:00:07;103981.78;;;4.18;100.00
52535;BME280;38443;53.164;5.802;2023-02-13T08:02:32;103984.38;;;4.17;100.00
52535;BME280;38443;53.164;5.802;2023-02-13T08:04:58;103986.28;;;4.19;100.00
52535;BME280;38443;53.164;5.802;2023-02-13T08:07:23;103983.69;;;4.21;100.00
52535;BME280;38443;53.164;5.802;2023-02-13T08:09:48;103980.19;;;4.22;100.00
52535;BME280;38443;53.164;5.802;2023-02-13T08:12:34;103983.81;;;4.24;100.00
52535;BME280;38443;53.164;5.802;2023-02-13T08:15:00;103978.69;;;4.27;100.00
52535;BME280;38443;53.164;5.802;2023-02-13T08:17:25;103979.59;;;4.28;100.00
52535;BME280;38443;53.164;5.802;2023-02-13T08:19:50;103977.91;;;4.30;100.00
52535;BME280;38443;53.164;5.802;2023-02-13T08:22:15;103982.31;;;4.29;100.00
52535;BME280;38443;53.164;5.802;2023-02-13T08:24:41;103980.66;;;4.31;100.00
52535;BME280;38443;53.164;5.802;2023-02-13T08:27:06;103985.94;;;4.31;100.00
52535;BME280;38443;53.164;5.802;2023-02-13T08:29:31;103974.56;;;4.34;100.00
52535;BME280;38443;53.164;5.802;2023-02-13T08:31:58;103981.75;;;4.36;100.00
52535;BME280;38443;53.164;5.802;2023-02-13T08:34:23;103979.19;;;4.38;100.00
52535;BME280;38443;53.164;5.802;2023-02-13T08:36:49;103989.09;;;4.42;100.00
52535;BME280;38443;53.164;5.802;2023-02-13T08:39:14;103985.53;;;4.42;100.00
52535;BME280;38443;53.164;5.802;2023-02-13T08:41:39;103986.59;;;4.45;100.00
52535;BME280;38443;53.164;5.802;2023-02-13T08:44:06;103986.59;;;4.45;100.00
52535;BME280;38443;53.164;5.802;2023-02-13T08:46:31;103994.56;;;4.45;100.00
52535;BME280;38443;53.164;5.802;2023-02-13T08:48:57;103988.47;;;4.48;100.00
52535;BME280;38443;53.164;5.802;2023-02-13T08:51:22;103992.03;;;4.48;100.00
52535;BME280;38443;53.164;5.802;2023-02-13T08:53:47;103993.00;;;4.50;100.00
52535;BME280;38443;53.164;5.802;2023-02-13T08:56:12;103989.53;;;4.51;100.00
52535;BME280;38443;53.164;5.802;2023-02-13T08:58:38;103987.00;;;4.54;100.00
52535;BME280;38443;53.164;5.802;2023-02-13T09:01:03;103987.00;;;4.54;100.00
52535;BME280;38443;53.164;5.802;2023-02-13T09:03:29;103991.53;;;4.57;100.00
52535;BME280;38443;53.164;5.802;2023-02-13T09:05:57;103988.97;;;4.58;100.00
52535;BME280;38443;53.164;5.802;2023-02-13T09:08:22;103990.88;;;4.61;100.00
52535;BME280;38443;53.164;5.802;2023-02-13T09:10:55;103991.91;;;4.65;100.00
52535;BME280;38443;53.164;5.802;2023-02-13T09:13:22;103988.44;;;4.66;100.00
52535;BME280;38443;53.164;5.802;2023-02-13T09:15:47;103993.72;;;4.66;100.00
52535;BME280;38443;53.164;5.802;2023-02-13T09:18:12;103987.66;;;4.68;100.00
52535;BME280;38443;53.164;5.802;2023-02-13T09:20:37;103988.56;;;4.69;100.00
52535;BME280;38443;53.164;5.802;2023-02-13T09:23:03;103981.56;;;4.71;100.00
52535;BME280;38443;53.164;5.802;2023-02-13T09:25:28;103994.84;;;4.71;100.00
52535;BME280;38443;53.164;5.802;2023-02-13T09:27:53;103994.13;;;4.75;100.00
52535;BME280;38443;53.164;5.802;2023-02-13T09:30:18;103989.81;;;4.77;100.00
52535;BME280;38443;53.164;5.802;2023-02-13T09:32:51;103981.09;;;4.79;100.00
52535;BME280;38443;53.164;5.802;2023-02-13T09:35:17;103988.28;;;4.82;100.00
52535;BME280;38443;53.164;5.802;2023-02-13T09:37:43;103986.59;;;4.84;100.00
52535;BME280;38443;53.164;5.802;2023-02-13T09:40:30;103992.88;;;4.86;100.00
52535;BME280;38443;53.164;5.802;2023-02-13T09:43:06;103984.09;;;4.87;100.00
52535;BME280;38443;53.164;5.802;2023-02-13T09:45:33;103982.44;;;4.89;100.00
52535;BME280;38443;53.164;5.802;2023-02-13T09:47:59;103979.81;;;4.91;100.00
52535;BME280;38443;53.164;5.802;2023-02-13T09:50:25;103983.31;;;4.90;100.00
52535;BME280;38443;53.164;5.802;2023-02-13T09:52:54;103987.94;;;4.94;100.00
52535;BME280;38443;53.164;5.802;2023-02-13T09:55:25;103983.59;;;4.96;100.00
52535;BME280;38443;53.164;5.802;2023-02-13T10:00:47;103979.38;;;5.01;100.00
52535;BME280;38443;53.164;5.802;2023-02-13T10:03:42;103975.13;;;5.05;100.00
52535;BME280;38443;53.164;5.802;2023-02-13T10:08:48;103977.03;;;5.07;100.00
52535;BME280;38443;53.164;5.802;2023-02-13T10:11:42;103981.47;;;5.08;100.00
52535;BME280;38443;53.164;5.802;2023-02-13T10:16:50;103983.34;;;5.11;100.00
52535;BME280;38443;53.164;5.802;2023-02-13T10:19:43;103985.31;;;5.15;100.00
52535;BME280;38443;53.164;5.802;2023-02-13T10:22:16;103980.00;;;5.15;100.00
52535;BME280;38443;53.164;5.802;2023-02-13T10:24:55;103982.72;;;5.16;100.00
52535;BME280;38443;53.164;5.802;2023-02-13T10:27:28;103976.63;;;5.19;100.00
52535;BME280;38443;53.164;5.802;2023-02-13T10:30:19;103980.34;;;5.23;100.00
52535;BME280;38443;53.164;5.802;2023-02-13T10:33:02;103981.31;;;5.25;100.00
52535;BME280;38443;53.164;5.802;2023-02-13T10:38:22;103982.53;;;5.33;100.00
52535;BME280;38443;53.164;5.802;2023-02-13T10:43:37;103972.84;;;5.33;100.00
52535;BME280;38443;53.164;5.802;2023-02-13T10:48:59;103969.53;;;5.39;100.00
52535;BME280;38443;53.164;5.802;2023-02-13T10:51:33;103969.75;;;5.44;100.00
52535;BME280;38443;53.164;5.802;2023-02-13T10:57:07;103960.09;;;5.46;100.00
52535;BME280;38443;53.164;5.802;2023-02-13T11:00:11;103963.81;;;5.51;100.00
52535;BME280;38443;53.164;5.802;2023-02-13T11:02:41;103956.97;;;5.56;100.00
52535;BME280;38443;53.164;5.802;2023-02-13T11:05:14;103956.97;;;5.56;100.00
52535;BME280;38443;53.164;5.802;2023-02-13T11:07:41;103951.91;;;5.62;100.00
52535;BME280;38443;53.164;5.802;2023-02-13T11:10:22;103956.56;;;5.68;100.00
52535;BME280;38443;53.164;5.802;2023-02-13T11:12:49;103948.72;;;5.71;100.00
52535;BME280;38443;53.164;5.802;2023-02-13T11:15:27;103947.16;;;5.76;100.00
52535;BME280;38443;53.164;5.802;2023-02-13T11:17:54;103942.09;;;5.82;100.00
52535;BME280;38443;53.164;5.802;2023-02-13T11:20:39;103933.31;;;5.85;100.00
52535;BME280;38443;53.164;5.802;2023-02-13T11:26:42;103929.88;;;5.87;100.00
52535;BME280;38443;53.164;5.802;2023-02-13T11:28:53;103932.81;;;5.93;100.00
52535;BME280;38443;53.164;5.802;2023-02-13T11:31:33;103928.66;;;6.00;100.00
52535;BME280;38443;53.164;5.802;2023-02-13T11:34:21;103926.91;;;6.01;100.00
52535;BME280;38443;53.164;5.802;2023-02-13T11:36:52;103922.69;;;6.06;100.00
52535;BME280;38443;53.164;5.802;2023-02-13T11:39:20;103922.00;;;6.11;100.00
52535;BME280;38443;53.164;5.802;2023-02-13T11:41:47;103918.56;;;6.14;100.00
52535;BME280;38443;53.164;5.802;2023-02-13T11:44:27;103924.84;;;6.16;100.00
52535;BME280;38443;53.164;5.802;2023-02-13T11:46:58;103919.78;;;6.22;100.00
52535;BME280;38443;53.164;5.802;2023-02-13T11:49:33;103924.28;;;6.25;100.00
52535;BME280;38443;53.164;5.802;2023-02-13T11:52:01;103924.28;;;6.25;100.00
52535;BME280;38443;53.164;5.802;2023-02-13T11:54:43;103922.59;;;6.27;100.00
52535;BME280;38443;53.164;5.802;2023-02-13T11:59:51;103919.28;;;6.32;100.00
52535;BME280;38443;53.164;5.802;2023-02-13T12:04:46;103908.78;;;6.37;100.00
52535;BME280;38443;53.164;5.802;2023-02-13T12:07:26;103903.59;;;6.40;100.00
52535;BME280;38443;53.164;5.802;2023-02-13T12:09:59;103904.56;;;6.42;100.00
52535;BME280;38443;53.164;5.802;2023-02-13T12:12:31;103890.63;;;6.49;100.00
52535;BME280;38443;53.164;5.802;2023-02-13T12:15:03;103890.75;;;6.52;100.00
52535;BME280;38443;53.164;5.802;2023-02-13T12:17:34;103895.25;;;6.55;100.00
52535;BME280;38443;53.164;5.802;2023-02-13T12:20:00;103889.13;;;6.56;100.00
52535;BME280;38443;53.164;5.802;2023-02-13T12:22:30;103883.94;;;6.61;100.00
52535;BME280;38443;53.164;5.802;2023-02-13T12:25:24;103883.88;;;6.59;100.00
52535;BME280;38443;53.164;5.802;2023-02-13T12:28:05;103882.31;;;6.64;100.00
52535;BME280;38443;53.164;5.802;2023-02-13T12:41:58;103865.19;;;6.82;100.00
52535;BME280;38443;53.164;5.802;2023-02-13T12:47:19;103854.75;;;6.88;100.00
52535;BME280;38443;53.164;5.802;2023-02-13T12:55:25;103850.53;;;6.94;100.00
52535;BME280;38443;53.164;5.802;2023-02-13T12:58:12;103847.97;;;6.97;100.00
52535;BME280;38443;53.164;5.802;2023-02-13T13:06:52;103839.47;;;7.08;100.00
52535;BME280;38443;53.164;5.802;2023-02-13T13:14:57;103841.59;;;7.19;100.00
52535;BME280;38443;53.164;5.802;2023-02-13T13:22:46;103836.69;;;7.32;100.00
52535;BME280;38443;53.164;5.802;2023-02-13T13:25:31;103817.28;;;7.36;100.00
52535;BME280;38443;53.164;5.802;2023-02-13T13:28:12;103821.75;;;7.37;100.00
52535;BME280;38443;53.164;5.802;2023-02-13T13:30:39;103818.38;;;7.43;100.00
52535;BME280;38443;53.164;5.802;2023-02-13T13:33:16;103815.81;;;7.46;100.00
52535;BME280;38443;53.164;5.802;2023-02-13T13:38:49;103814.09;;;7.48;100.00
52535;BME280;38443;53.164;5.802;2023-02-13T13:41:31;103812.47;;;7.53;100.00
52535;BME280;38443;53.164;5.802;2023-02-13T13:52:23;103793.75;;;7.50;100.00
52535;BME280;38443;53.164;5.802;2023-02-13T13:54:50;103793.81;;;7.53;100.00
52535;BME280;38443;53.164;5.802;2023-02-13T13:57:24;103791.22;;;7.54;100.00
52535;BME280;38443;53.164;5.802;2023-02-13T14:07:35;103790.19;;;7.51;100.00
52535;BME280;38443;53.164;5.802;2023-02-13T14:10:01;103784.06;;;7.53;100.00
52535;BME280;38443;53.164;5.802;2023-02-13T14:14:53;103774.22;;;7.51;100.00
52535;BME280;38443;53.164;5.802;2023-02-13T14:20:20;103766.28;;;7.52;100.00
52535;BME280;38443;53.164;5.802;2023-02-13T14:22:47;103766.34;;;7.55;100.00
52535;BME280;38443;53.164;5.802;2023-02-13T14:25:25;103761.84;;;7.53;100.00
52535;BME280;38443;53.164;5.802;2023-02-13T14:27:57;103768.13;;;7.55;100.00
52535;BME280;38443;53.164;5.802;2023-02-13T14:30:30;103759.16;;;7.53;100.00
52535;BME280;38443;53.164;5.802;2023-02-13T14:32:59;103762.72;;;7.53;100.00
52535;BME280;38443;53.164;5.802;2023-02-13T14:35:28;103760.06;;;7.53;100.00
52535;BME280;38443;53.164;5.802;2023-02-13T14:38:00;103767.28;;;7.56;100.00
52535;BME280;38443;53.164;5.802;2023-02-13T14:40:49;103765.50;;;7.56;100.00
52535;BME280;38443;53.164;5.802;2023-02-13T14:43:31;103772.63;;;7.57;100.00
52535;BME280;38443;53.164;5.802;2023-02-13T14:46:19;103768.13;;;7.55;100.00
52535;BME280;38443;53.164;5.802;2023-02-13T14:49:00;103775.22;;;7.54;100.00
52535;BME280;38443;53.164;5.802;2023-02-13T14:51:39;103768.88;;;7.51;100.00
52535;BME280;38443;53.164;5.802;2023-02-13T14:54:22;103774.22;;;7.51;100.00
52535;BME280;38443;53.164;5.802;2023-02-13T14:56:52;103764.41;;;7.50;100.00
52535;BME280;38443;53.164;5.802;2023-02-13T14:59:21;103770.59;;;7.49;100.00
52535;BME280;38443;53.164;5.802;2023-02-13T15:01:53;103767.03;;;7.48;100.00
52535;BME280;38443;53.164;5.802;2023-02-13T15:04:30;103754.53;;;7.46;100.00
52535;BME280;38443;53.164;5.802;2023-02-13T15:07:01;103766.97;;;7.47;100.00
52535;BME280;38443;53.164;5.802;2023-02-13T15:09:35;103768.81;;;7.48;100.00
52535;BME280;38443;53.164;5.802;2023-02-13T15:12:03;103766.09;;;7.46;100.00
52535;BME280;38443;53.164;5.802;2023-02-13T15:14:30;103762.31;;;7.39;100.00